createdAt,value
2019-02-16T00:00:51.698Z,68.53
2019-02-16T00:03:56.314Z,69.57
2019-02-16T00:07:01.166Z,68.83
2019-02-16T00:10:06.072Z,68.63
2019-02-16T00:13:12.822Z,68.77
2019-02-16T00:16:17.585Z,70.20
2019-02-16T00:19:22.330Z,75.53
2019-02-16T00:22:27.351Z,75.17
2019-02-16T00:25:32.091Z,73.83
2019-02-16T00:28:36.929Z,71.47
2019-02-16T00:31:41.740Z,72.10
2019-02-16T00:34:46.574Z,65.50
2019-02-16T00:37:51.398Z,73.17
2019-02-16T00:40:56.134Z,70.03
2019-02-16T00:44:00.849Z,70.90
2019-02-16T00:47:07.049Z,71.70
2019-02-16T00:50:11.943Z,69.73
2019-02-16T00:53:16.682Z,70.17
2019-02-16T00:56:21.196Z,73.80
2019-02-16T00:59:27.902Z,72.57
2019-02-16T01:02:32.387Z,71.33
2019-02-16T01:05:37.117Z,72.80
2019-02-16T01:08:41.932Z,71.13
2019-02-16T01:11:46.679Z,69.67
2019-02-16T01:14:51.417Z,73.17
2019-02-16T01:17:56.137Z,69.90
2019-02-16T01:21:01.983Z,66.00
2019-02-16T01:24:06.926Z,65.23
2019-02-16T01:27:11.770Z,67.23
2019-02-16T01:30:16.373Z,68.03
2019-02-16T01:33:21.228Z,67.23
2019-02-16T01:36:26.274Z,68.20
2019-02-16T01:39:31.065Z,67.60
2019-02-16T01:42:35.925Z,64.90
2019-02-16T01:45:43.574Z,66.47
2019-02-16T01:48:50.142Z,61.97
2019-02-16T01:51:54.800Z,63.03
2019-02-16T01:54:59.632Z,59.63
2019-02-16T01:58:04.374Z,59.07
2019-02-16T02:01:09.181Z,56.33
2019-02-16T02:04:13.889Z,56.87
2019-02-16T02:07:20.002Z,55.27
2019-02-16T02:10:24.697Z,52.30
2019-02-16T02:13:29.552Z,51.63
2019-02-16T02:16:34.253Z,49.90
2019-02-16T02:19:38.798Z,48.77
2019-02-16T02:22:43.708Z,47.60
2019-02-16T02:25:48.553Z,46.17
2019-02-16T02:28:53.263Z,45.30
2019-02-16T02:31:57.818Z,43.93
2019-02-16T02:35:02.225Z,41.57
2019-02-16T02:38:07.162Z,42.13
2019-02-16T02:41:11.989Z,39.90
2019-02-16T02:44:16.805Z,38.77
2019-02-16T02:47:21.437Z,39.70
2019-02-16T02:50:26.085Z,37.93
2019-02-16T02:53:31.841Z,34.30
2019-02-16T02:56:36.655Z,34.73
2019-02-16T02:59:41.376Z,32.63
2019-02-16T03:02:46.201Z,32.10
2019-02-16T03:05:50.846Z,32.27
2019-02-16T03:08:55.776Z,31.50
2019-02-16T03:12:00.703Z,30.93
2019-02-16T03:15:05.622Z,29.13
2019-02-16T03:18:10.477Z,28.57
2019-02-16T03:21:14.875Z,29.50
2019-02-16T03:24:19.725Z,26.30
2019-02-16T03:27:54.936Z,25.47
2019-02-16T03:31:34.996Z,24.67
2019-02-16T03:34:45.174Z,24.77
2019-02-16T03:38:35.806Z,25.33
2019-02-16T03:41:40.531Z,23.30
2019-02-16T03:44:45.271Z,23.23
2019-02-16T03:47:50.012Z,21.30
2019-02-16T03:50:54.829Z,21.33
2019-02-16T03:53:59.446Z,21.40
2019-02-16T03:57:04.277Z,19.40
2019-02-16T04:00:09.461Z,19.43
2019-02-16T04:03:14.052Z,18.50
2019-02-16T04:06:18.989Z,19.60
2019-02-16T04:09:23.809Z,19.40
2019-02-16T04:12:28.674Z,20.03
2019-02-16T04:15:33.568Z,22.27
2019-02-16T04:18:38.218Z,22.27
2019-02-16T04:21:43.038Z,21.17
2019-02-16T04:24:47.786Z,22.20
2019-02-16T04:27:52.486Z,21.10
2019-02-16T04:30:57.313Z,22.40
2019-02-16T04:34:02.145Z,21.83
2019-02-16T04:37:07.017Z,22.87
2019-02-16T04:40:11.807Z,21.90
2019-02-16T04:43:17.494Z,22.03
2019-02-16T04:46:22.287Z,24.37
2019-02-16T04:49:26.912Z,23.30
2019-02-16T04:52:34.755Z,24.63
2019-02-16T04:55:38.112Z,25.53
2019-02-16T04:58:43.095Z,25.40
2019-02-16T05:01:47.970Z,25.80
2019-02-16T05:04:52.639Z,26.57
2019-02-16T05:07:57.422Z,26.23
2019-02-16T05:11:02.264Z,26.83
2019-02-16T05:14:08.914Z,28.57
2019-02-16T05:17:13.567Z,28.40
2019-02-16T05:20:18.490Z,29.67
2019-02-16T05:23:23.124Z,28.13
2019-02-16T05:26:30.325Z,30.53
2019-02-16T05:29:35.144Z,32.17
2019-02-16T05:32:39.965Z,30.10
2019-02-16T05:35:44.800Z,37.00
2019-02-16T05:38:49.756Z,39.60
2019-02-16T05:41:54.664Z,44.40
2019-02-16T05:44:59.413Z,48.50
2019-02-16T05:48:04.305Z,52.03
2019-02-16T05:51:09.358Z,53.50
2019-02-16T05:54:14.071Z,56.13
2019-02-16T05:57:18.602Z,56.93
2019-02-16T06:00:26.698Z,56.70
2019-02-16T06:03:31.479Z,60.17
2019-02-16T06:06:36.263Z,58.70
2019-02-16T06:09:41.222Z,57.53
2019-02-16T06:12:47.724Z,57.37
2019-02-16T06:15:52.515Z,57.07
2019-02-16T06:18:57.450Z,55.93
2019-02-16T06:22:02.244Z,53.67
2019-02-16T06:25:07.205Z,53.87
2019-02-16T06:28:11.925Z,52.40
2019-02-16T06:31:16.757Z,51.00
2019-02-16T06:34:21.695Z,51.43
2019-02-16T06:37:26.661Z,43.00
2019-02-16T06:40:31.452Z,45.60
2019-02-16T06:43:36.402Z,45.30
2019-02-16T06:46:41.032Z,43.43
2019-02-16T06:49:45.845Z,40.90
2019-02-16T06:52:50.719Z,40.60
2019-02-16T06:56:09.850Z,35.57
2019-02-16T06:59:14.878Z,33.80
2019-02-16T07:02:20.492Z,32.50
2019-02-16T07:05:25.453Z,33.57
2019-02-16T07:08:30.506Z,30.80
2019-02-16T07:11:35.637Z,32.40
2019-02-16T07:14:43.969Z,31.80
2019-02-16T07:17:56.696Z,17.70
2019-02-16T07:21:01.255Z,16.80
2019-02-16T07:24:06.000Z,20.30
2019-02-16T07:27:10.718Z,21.97
2019-02-16T07:30:15.453Z,23.20
2019-02-16T07:33:20.387Z,27.13
2019-02-16T07:36:25.037Z,24.10
2019-02-16T07:39:29.755Z,24.77
2019-02-16T07:43:08.716Z,23.93
2019-02-16T07:46:22.942Z,23.33
2019-02-16T07:49:47.295Z,24.13
2019-02-16T07:53:06.329Z,22.00
2019-02-16T07:56:30.142Z,21.60
2019-02-16T07:59:44.244Z,18.67
2019-02-16T08:03:19.737Z,18.20
2019-02-16T08:06:46.320Z,19.67
2019-02-16T08:10:16.082Z,26.60
2019-02-16T08:13:45.773Z,26.43
2019-02-16T08:16:57.013Z,20.60
2019-02-16T08:20:19.398Z,17.03
2019-02-16T08:23:49.946Z,13.10
2019-02-16T08:27:16.976Z,13.10
2019-02-16T08:30:46.461Z,10.73
2019-02-16T08:34:08.995Z,10.47
2019-02-16T08:37:38.461Z,10.40
2019-02-16T08:41:00.669Z,9.87
2019-02-16T08:44:27.520Z,9.30
2019-02-16T08:47:48.427Z,9.07
2019-02-16T08:51:02.500Z,9.20
2019-02-16T08:54:17.558Z,8.37
2019-02-16T08:57:41.089Z,9.90
2019-02-16T09:01:14.079Z,10.13
2019-02-16T09:04:45.552Z,11.30
2019-02-16T09:08:08.274Z,10.57
2019-02-16T09:11:31.040Z,10.47
2019-02-16T09:14:57.520Z,11.00
2019-02-16T09:18:19.888Z,10.70
2019-02-16T09:21:33.292Z,10.60
2019-02-16T09:25:02.840Z,10.37
2019-02-16T09:28:29.791Z,10.27
2019-02-16T09:31:56.380Z,10.50
2019-02-16T09:35:32.380Z,10.07
2019-02-16T09:38:47.005Z,16.03
2019-02-16T09:41:57.322Z,19.80
2019-02-16T09:45:24.182Z,21.40
2019-02-16T09:48:50.659Z,23.90
2019-02-16T09:52:12.903Z,23.00
2019-02-16T09:55:42.335Z,25.30
2019-02-16T09:59:04.584Z,26.80
2019-02-16T10:02:28.107Z,27.50
2019-02-16T10:05:51.025Z,29.93
2019-02-16T10:09:05.485Z,33.43
2019-02-16T10:12:27.840Z,36.07
2019-02-16T10:16:03.370Z,34.47
2019-02-16T10:19:25.165Z,40.20
2019-02-16T10:22:51.095Z,121.50
2019-02-16T10:26:11.286Z,39.90
2019-02-16T10:29:40.805Z,43.53
2019-02-16T10:33:07.662Z,46.10
2019-02-16T10:36:34.022Z,43.53
2019-02-16T10:39:56.552Z,43.80
2019-02-16T10:43:28.106Z,44.83
2019-02-16T10:46:55.518Z,46.70
2019-02-16T10:50:34.096Z,50.40
2019-02-16T10:53:57.966Z,51.37
2019-02-16T10:57:28.079Z,46.90
2019-02-16T11:00:51.767Z,49.17
2019-02-16T11:04:01.377Z,50.80
2019-02-16T11:07:14.480Z,51.30
2019-02-16T11:10:35.765Z,54.00
2019-02-16T11:13:59.457Z,84.00
2019-02-16T11:17:29.123Z,30.33
2019-02-16T11:20:58.823Z,18.90
2019-02-16T11:24:25.345Z,17.70
2019-02-16T11:27:55.178Z,17.60
2019-02-16T11:31:14.240Z,21.23
2019-02-16T11:34:38.039Z,21.43
2019-02-16T11:38:00.568Z,20.67
2019-02-16T11:41:30.049Z,19.13
2019-02-16T11:44:46.769Z,19.40
2019-02-16T11:48:14.092Z,20.37
2019-02-16T11:51:36.283Z,19.20
2019-02-16T11:54:55.030Z,18.63
2019-02-16T11:58:30.838Z,18.83
2019-02-16T12:01:57.399Z,19.03
2019-02-16T12:05:33.228Z,17.60
2019-02-16T12:09:07.749Z,18.30
2019-02-16T12:12:36.826Z,17.20
2019-02-16T12:16:00.368Z,18.83
2019-02-16T12:19:22.716Z,17.80
2019-02-16T12:22:40.375Z,17.90
2019-02-16T12:25:59.513Z,17.90
2019-02-16T12:29:22.059Z,18.77
2019-02-16T12:32:44.468Z,40.17
2019-02-16T12:36:14.458Z,39.73
2019-02-16T12:39:50.211Z,44.40
2019-02-16T12:43:10.957Z,47.23
2019-02-16T12:46:37.898Z,46.50
2019-02-16T12:50:04.643Z,45.83
2019-02-16T12:53:19.791Z,49.10
2019-02-16T12:56:36.268Z,51.37
2019-02-16T13:00:12.193Z,50.03
2019-02-16T13:03:33.805Z,52.17
2019-02-16T13:06:48.884Z,53.77
2019-02-16T13:10:15.353Z,54.30
2019-02-16T13:13:46.977Z,55.50
2019-02-16T13:17:10.230Z,51.40
2019-02-16T13:20:31.801Z,51.80
2019-02-16T13:23:41.446Z,56.67
2019-02-16T13:27:00.390Z,25.57
2019-02-16T13:30:36.127Z,25.73
2019-02-16T13:33:58.224Z,19.10
2019-02-16T13:37:33.127Z,28.03
2019-02-16T13:40:56.059Z,29.37
2019-02-16T13:44:19.543Z,28.67
2019-02-16T13:47:31.765Z,29.63
2019-02-16T13:50:41.228Z,29.30
2019-02-16T13:54:17.048Z,29.20
2019-02-16T13:57:44.712Z,29.70
2019-02-16T14:01:11.270Z,30.30
2019-02-16T14:04:25.471Z,29.77
2019-02-16T14:08:01.004Z,30.13
2019-02-16T14:11:27.638Z,29.70
2019-02-16T14:14:51.355Z,30.20
2019-02-16T14:17:56.129Z,31.03
2019-02-16T14:21:00.664Z,31.87
2019-02-16T14:24:05.683Z,11.60
2019-02-16T14:27:10.658Z,15.67
2019-02-16T14:30:15.591Z,13.60
2019-02-16T14:33:20.499Z,9.90
2019-02-16T14:36:25.416Z,11.30
2019-02-16T14:39:31.567Z,13.73
2019-02-16T14:42:36.521Z,18.67
2019-02-16T14:45:41.755Z,11.50
2019-02-16T14:48:50.033Z,9.30
2019-02-16T14:51:54.917Z,21.10
2019-02-16T14:54:59.941Z,29.53
2019-02-16T14:58:05.656Z,31.80
2019-02-16T15:01:10.443Z,36.00
2019-02-16T15:04:15.052Z,33.03
2019-02-16T15:07:19.764Z,32.97
2019-02-16T15:10:24.592Z,34.07
2019-02-16T15:13:29.209Z,35.23
2019-02-16T15:16:35.351Z,36.27
2019-02-16T15:19:40.086Z,35.27
2019-02-16T15:22:44.945Z,34.50
2019-02-16T15:25:49.768Z,34.97
2019-02-16T15:28:54.515Z,35.50
2019-02-16T15:31:59.116Z,36.47
2019-02-16T15:35:03.952Z,37.03
2019-02-16T15:38:09.114Z,38.70
2019-02-16T15:41:13.916Z,44.37
2019-02-16T15:44:18.556Z,50.17
2019-02-16T15:47:23.368Z,49.53
2019-02-16T15:50:28.213Z,52.27
2019-02-16T15:53:34.898Z,56.33
2019-02-16T15:56:40.596Z,60.90
2019-02-16T15:59:45.171Z,62.07
2019-02-16T16:02:50.006Z,62.17
2019-02-16T16:05:55.010Z,63.57
2019-02-16T16:09:18.242Z,65.67
2019-02-16T16:12:41.720Z,64.03
2019-02-16T16:16:04.339Z,67.13
2019-02-16T16:19:31.251Z,65.70
2019-02-16T16:22:53.751Z,67.00
2019-02-16T16:26:21.300Z,65.67
2019-02-16T16:29:46.527Z,62.60
2019-02-16T16:33:09.084Z,64.00
2019-02-16T16:36:31.556Z,60.33
2019-02-16T16:39:54.438Z,60.87
2019-02-16T16:43:10.597Z,59.07
2019-02-16T16:46:40.071Z,55.80
2019-02-16T16:50:18.158Z,58.10
2019-02-16T16:53:36.287Z,56.47
2019-02-16T16:57:01.308Z,54.60
2019-02-16T17:00:23.601Z,52.67
2019-02-16T17:03:44.469Z,51.87
2019-02-16T17:07:06.739Z,44.97
2019-02-16T17:10:42.836Z,41.97
2019-02-16T17:13:57.556Z,44.23
2019-02-16T17:17:20.708Z,45.47
2019-02-16T17:20:41.732Z,43.23
2019-02-16T17:24:14.829Z,39.53
2019-02-16T17:27:38.412Z,40.70
2019-02-16T17:30:55.820Z,42.10
2019-02-16T17:34:24.784Z,39.23
2019-02-16T17:37:47.459Z,45.23
2019-02-16T17:40:59.182Z,40.10
2019-02-16T17:44:11.631Z,41.27
2019-02-16T17:47:24.615Z,43.80
2019-02-16T17:50:55.570Z,42.37
2019-02-16T17:54:25.342Z,42.03
2019-02-16T17:57:50.331Z,41.37
2019-02-16T18:01:19.771Z,40.50
2019-02-16T18:04:43.339Z,40.27
2019-02-16T18:07:58.759Z,39.33
2019-02-16T18:11:14.390Z,39.03
2019-02-16T18:14:36.489Z,27.53
2019-02-16T18:18:00.176Z,25.50
2019-02-16T18:21:39.198Z,26.50
2019-02-16T18:25:12.152Z,24.10
2019-02-16T18:28:57.252Z,22.67
2019-02-16T18:32:17.252Z,22.30
2019-02-16T18:35:37.335Z,21.20
2019-02-16T18:39:03.837Z,19.83
2019-02-16T18:42:36.742Z,20.53
2019-02-16T18:45:51.896Z,20.33
2019-02-16T18:49:21.456Z,19.20
2019-02-16T18:52:50.957Z,19.13
2019-02-16T18:56:20.713Z,19.30
2019-02-16T18:59:51.734Z,42.70
2019-02-16T19:03:06.288Z,30.73
2019-02-16T19:06:29.062Z,20.37
2019-02-16T19:09:55.589Z,21.90
2019-02-16T19:13:17.066Z,20.30
2019-02-16T19:16:41.783Z,21.63
2019-02-16T19:20:04.511Z,20.50
2019-02-16T19:23:21.062Z,20.30
2019-02-16T19:26:32.650Z,21.27
2019-02-16T19:29:56.520Z,20.87
2019-02-16T19:33:19.078Z,21.20
2019-02-16T19:36:36.577Z,21.53
2019-02-16T19:40:00.337Z,20.70
2019-02-16T19:43:22.831Z,20.67
2019-02-16T19:46:45.236Z,19.20
2019-02-16T19:50:04.199Z,20.53
2019-02-16T19:53:39.724Z,19.33
2019-02-16T19:57:02.166Z,20.60
2019-02-16T20:00:45.777Z,20.17
2019-02-16T20:04:12.492Z,21.60
2019-02-16T20:07:31.842Z,21.33
2019-02-16T20:10:45.497Z,22.40
2019-02-16T20:14:15.072Z,20.73
2019-02-16T20:17:53.647Z,20.63
2019-02-16T20:21:16.087Z,32.23
2019-02-16T20:24:45.974Z,36.83
2019-02-16T20:28:08.426Z,43.53
2019-02-16T20:31:19.637Z,44.53
2019-02-16T20:34:35.003Z,40.27
2019-02-16T20:38:03.279Z,36.27
2019-02-16T20:41:23.065Z,36.80
2019-02-16T20:44:49.561Z,63.63
2019-02-16T20:48:13.344Z,37.57
2019-02-16T20:51:46.035Z,36.20
2019-02-16T20:55:09.856Z,34.77
2019-02-16T20:58:33.607Z,32.77
2019-02-16T21:02:03.079Z,33.20
2019-02-16T21:05:20.377Z,31.17
2019-02-16T21:08:36.754Z,33.10
2019-02-16T21:12:00.463Z,32.00
2019-02-16T21:15:11.052Z,32.90
2019-02-16T21:18:46.724Z,32.03
2019-02-16T21:22:11.853Z,31.90
2019-02-16T21:25:39.624Z,163.37
2019-02-16T21:28:49.214Z,36.13
2019-02-16T21:32:17.240Z,33.13
2019-02-16T21:35:39.069Z,31.70
2019-02-16T21:39:03.525Z,30.07
2019-02-16T21:42:24.476Z,30.87
2019-02-16T21:45:58.076Z,28.30
2019-02-16T21:49:41.936Z,29.03
2019-02-16T21:53:08.182Z,49.17
2019-02-16T21:56:46.925Z,62.13
2019-02-16T22:00:22.411Z,57.27
2019-02-16T22:03:44.991Z,61.27
2019-02-16T22:07:17.222Z,52.93
2019-02-16T22:10:40.754Z,57.80
2019-02-16T22:13:45.698Z,61.17
2019-02-16T22:16:50.736Z,58.87
2019-02-16T22:19:55.646Z,61.50
2019-02-16T22:23:00.606Z,56.10
2019-02-16T22:26:05.400Z,60.60
2019-02-16T22:29:10.264Z,54.03
2019-02-16T22:32:15.335Z,64.57
2019-02-16T22:35:20.257Z,65.43
2019-02-16T22:38:25.158Z,57.57
2019-02-16T22:41:30.003Z,54.70
2019-02-16T22:44:34.951Z,53.50
2019-02-16T22:47:39.685Z,55.40
2019-02-16T22:50:44.557Z,55.50
2019-02-16T22:53:50.637Z,52.37
2019-02-16T22:56:55.339Z,55.30
2019-02-16T23:00:00.291Z,55.10
2019-02-16T23:03:06.071Z,53.37
2019-02-16T23:06:10.790Z,53.50
2019-02-16T23:09:27.516Z,53.93
2019-02-16T23:12:32.361Z,50.13
2019-02-16T23:15:37.165Z,51.50
2019-02-16T23:18:41.916Z,50.80
2019-02-16T23:21:46.412Z,52.40
2019-02-16T23:24:51.344Z,47.00
2019-02-16T23:27:56.155Z,49.00
2019-02-16T23:31:01.043Z,47.17
2019-02-16T23:34:05.718Z,45.60
2019-02-16T23:37:10.151Z,47.17
2019-02-16T23:40:14.875Z,46.20
2019-02-16T23:43:19.826Z,45.80
2019-02-16T23:46:24.640Z,45.80
2019-02-16T23:49:29.636Z,42.40
2019-02-16T23:52:35.943Z,42.33
2019-02-16T23:55:40.593Z,42.20
2019-02-16T23:58:49.359Z,42.60
